createdAt,value
2023-02-05T00:00:28.662Z,10.30
2023-02-05T00:05:31.008Z,13.52
2023-02-05T00:10:33.564Z,17.65
2023-02-05T00:15:39.939Z,20.48
2023-02-05T00:20:41.997Z,16.83
2023-02-05T00:25:44.004Z,11.95
2023-02-05T00:30:46.501Z,20.05
2023-02-05T00:35:48.706Z,21.35
2023-02-05T00:40:50.827Z,18.35
2023-02-05T00:45:53.094Z,26.80
2023-02-05T00:50:55.778Z,19.85
2023-02-05T00:55:57.797Z,23.25
2023-02-05T01:01:00.047Z,18.77
2023-02-05T01:06:03.485Z,15.93
2023-02-05T01:11:10.602Z,17.92
2023-02-05T01:16:12.682Z,17.00
2023-02-05T01:21:14.908Z,19.20
2023-02-05T01:26:17.387Z,15.32
2023-02-05T01:31:20.863Z,17.25
2023-02-05T01:36:23.146Z,14.30
2023-02-05T01:41:25.671Z,12.98
2023-02-05T01:46:30.232Z,14.57
2023-02-05T01:51:34.164Z,11.00
2023-02-05T01:56:48.441Z,19.58
2023-02-05T02:01:50.775Z,10.70
2023-02-05T02:06:53.631Z,9.38
2023-02-05T02:11:57.484Z,11.43
2023-02-05T02:17:00.470Z,7.78
2023-02-05T02:22:18.045Z,5.70
2023-02-05T02:28:00.571Z,8.15
2023-02-05T02:33:27.567Z,10.68
2023-02-05T02:38:33.409Z,9.48
2023-02-05T02:43:59.696Z,8.88
2023-02-05T02:49:05.776Z,8.13
2023-02-05T02:54:11.469Z,7.25
2023-02-05T02:59:20.997Z,9.88
2023-02-05T03:04:29.591Z,5.85
2023-02-05T03:09:54.693Z,8.38
2023-02-05T03:14:58.218Z,7.22
2023-02-05T03:20:08.955Z,4.70
2023-02-05T03:25:11.653Z,4.70
2023-02-05T03:30:16.486Z,5.45
2023-02-05T03:36:09.763Z,5.35
2023-02-05T03:41:58.457Z,5.15
2023-02-05T03:47:40.448Z,9.77
2023-02-05T03:52:48.247Z,6.10
2023-02-05T03:58:33.661Z,6.95
2023-02-05T04:03:35.835Z,9.65
2023-02-05T04:08:37.881Z,9.57
2023-02-05T04:13:40.324Z,10.98
2023-02-05T04:18:46.255Z,10.90
2023-02-05T04:23:48.578Z,6.50
2023-02-05T04:28:50.822Z,6.10
2023-02-05T04:33:53.105Z,5.13
2023-02-05T04:38:56.123Z,5.68
2023-02-05T04:43:58.425Z,8.00
2023-02-05T04:49:01.207Z,5.07
2023-02-05T04:54:03.434Z,5.10
2023-02-05T04:59:05.439Z,5.10
2023-02-05T05:04:07.442Z,4.03
2023-02-05T05:09:09.534Z,5.18
2023-02-05T05:14:11.796Z,8.43
2023-02-05T05:19:13.983Z,5.80
2023-02-05T05:24:16.320Z,5.40
2023-02-05T05:29:18.461Z,6.28
2023-02-05T05:34:20.763Z,6.82
2023-02-05T05:39:41.601Z,6.28
2023-02-05T05:44:45.049Z,7.55
2023-02-05T05:49:47.549Z,6.57
2023-02-05T05:54:55.941Z,3.08
2023-02-05T05:59:57.988Z,5.25
2023-02-05T06:05:02.160Z,3.70
2023-02-05T06:10:04.693Z,5.00
2023-02-05T06:15:07.366Z,5.25
2023-02-05T06:20:10.243Z,4.72
2023-02-05T06:25:12.356Z,4.25
2023-02-05T06:30:14.699Z,4.72
2023-02-05T06:35:17.056Z,5.70
2023-02-05T06:40:22.472Z,4.07
2023-02-05T06:45:25.915Z,4.22
2023-02-05T06:50:28.122Z,4.70
2023-02-05T06:55:30.277Z,2.63
2023-02-05T07:00:32.693Z,3.90
2023-02-05T07:05:35.503Z,3.78
2023-02-05T07:10:37.741Z,4.88
2023-02-05T07:15:39.772Z,6.15
2023-02-05T07:20:41.758Z,3.55
2023-02-05T07:25:43.716Z,3.75
2023-02-05T07:30:48.030Z,2.72
2023-02-05T07:35:50.002Z,3.75
2023-02-05T07:40:52.059Z,5.78
2023-02-05T07:46:01.007Z,5.22
2023-02-05T07:51:03.678Z,2.80
2023-02-05T07:56:06.066Z,2.47
2023-02-05T08:01:08.161Z,3.25
2023-02-05T08:06:14.093Z,3.45
2023-02-05T08:11:18.752Z,2.10
2023-02-05T08:16:20.886Z,2.17
2023-02-05T08:21:22.933Z,2.22
2023-02-05T08:26:25.020Z,2.75
2023-02-05T08:31:27.396Z,2.13
2023-02-05T08:36:29.550Z,2.97
2023-02-05T08:41:31.603Z,4.25
2023-02-05T08:46:47.551Z,3.40
2023-02-05T08:51:51.816Z,2.67
2023-02-05T08:56:53.905Z,3.88
2023-02-05T09:01:56.207Z,3.83
2023-02-05T09:06:58.166Z,4.85
2023-02-05T09:12:00.098Z,2.03
2023-02-05T09:17:08.191Z,2.45
2023-02-05T09:22:10.531Z,1.88
2023-02-05T09:27:14.569Z,2.95
2023-02-05T09:32:20.267Z,8.10
2023-02-05T09:37:23.068Z,2.28
2023-02-05T09:42:35.935Z,2.38
2023-02-05T09:47:46.680Z,2.75
2023-02-05T09:52:51.329Z,4.03
2023-02-05T09:57:56.300Z,3.72
2023-02-05T10:03:10.849Z,2.80
2023-02-05T10:08:19.994Z,6.72
2023-02-05T10:13:37.220Z,6.03
2023-02-05T10:18:54.013Z,4.05
2023-02-05T10:24:12.161Z,5.38
2023-02-05T10:29:30.409Z,6.43
2023-02-05T10:34:57.120Z,5.80
2023-02-05T10:39:59.933Z,9.15
2023-02-05T10:45:12.746Z,7.40
2023-02-05T10:50:25.898Z,6.30
2023-02-05T10:55:28.318Z,12.55
2023-02-05T11:00:30.721Z,3.58
2023-02-05T11:05:36.200Z,4.78
2023-02-05T11:10:38.166Z,6.55
2023-02-05T11:16:08.918Z,4.57
2023-02-05T11:21:11.694Z,6.78
2023-02-05T11:26:20.465Z,3.85
2023-02-05T11:31:29.362Z,5.43
2023-02-05T11:36:31.620Z,17.95
2023-02-05T11:41:48.428Z,11.80
2023-02-05T11:46:56.951Z,19.10
2023-02-05T11:51:59.522Z,14.23
2023-02-05T11:57:33.818Z,18.92
2023-02-05T12:02:37.883Z,7.43
2023-02-05T12:07:51.979Z,7.25
2023-02-05T12:13:06.506Z,9.73
2023-02-05T12:18:24.493Z,12.02
2023-02-05T12:23:45.287Z,2.78
2023-02-05T12:29:04.737Z,3.92
2023-02-05T12:34:06.721Z,7.05
2023-02-05T12:39:38.079Z,20.52
2023-02-05T12:44:52.240Z,23.95
2023-02-05T12:50:23.807Z,22.05
2023-02-05T12:55:45.224Z,6.13
2023-02-05T13:00:53.108Z,4.63
2023-02-05T13:05:59.344Z,5.05
2023-02-05T13:11:13.318Z,2.00
2023-02-05T13:16:17.961Z,11.02
2023-02-05T13:27:03.270Z,3.67
2023-02-05T13:32:15.596Z,5.55
2023-02-05T13:37:59.680Z,3.33
2023-02-05T13:48:48.483Z,15.30
2023-02-05T13:54:15.004Z,6.55
2023-02-05T13:59:18.697Z,3.10
2023-02-05T14:04:26.682Z,8.85
2023-02-05T14:09:44.278Z,9.18
2023-02-05T14:15:15.747Z,2.40
2023-02-05T14:20:27.001Z,4.78
2023-02-05T14:25:46.268Z,4.55
2023-02-05T14:30:49.711Z,4.28
2023-02-05T14:35:55.707Z,19.05
2023-02-05T14:41:24.034Z,2.97
2023-02-05T14:46:30.122Z,12.63
2023-02-05T14:51:40.885Z,4.55
2023-02-05T14:56:47.281Z,7.45
2023-02-05T15:01:54.340Z,4.28
2023-02-05T15:06:59.410Z,5.88
2023-02-05T15:12:29.413Z,5.40
2023-02-05T15:17:35.499Z,4.22
2023-02-05T15:22:52.567Z,8.02
2023-02-05T15:27:59.090Z,8.20
2023-02-05T15:33:08.417Z,14.80
2023-02-05T15:38:28.525Z,4.95
2023-02-05T15:43:30.944Z,5.55
2023-02-05T15:48:36.062Z,13.82
2023-02-05T15:53:44.741Z,7.35
2023-02-05T15:58:50.954Z,6.55
2023-02-05T16:03:53.514Z,4.82
2023-02-05T16:08:56.724Z,2.50
2023-02-05T16:14:13.751Z,3.50
2023-02-05T16:19:20.216Z,5.03
2023-02-05T16:24:27.251Z,6.00
2023-02-05T16:29:47.706Z,2.70
2023-02-05T16:34:50.657Z,3.65
2023-02-05T16:39:54.336Z,5.00
2023-02-05T16:45:08.540Z,5.25
2023-02-05T16:50:43.952Z,2.50
2023-02-05T16:55:46.381Z,3.00
2023-02-05T17:01:00.051Z,3.92
2023-02-05T17:06:04.170Z,2.22
2023-02-05T17:11:08.199Z,5.85
2023-02-05T17:16:32.248Z,4.15
2023-02-05T17:21:38.459Z,2.35
2023-02-05T17:26:42.964Z,4.18
2023-02-05T17:36:47.158Z,13.98
2023-02-05T17:42:04.111Z,8.95
2023-02-05T17:47:06.884Z,11.15
2023-02-05T17:52:09.436Z,7.20
2023-02-05T17:57:19.045Z,5.43
2023-02-05T18:02:21.513Z,9.98
2023-02-05T18:07:36.476Z,5.80
2023-02-05T18:12:38.569Z,6.13
2023-02-05T18:17:41.492Z,6.25
2023-02-05T18:22:43.693Z,7.07
2023-02-05T18:27:46.002Z,6.82
2023-02-05T18:32:48.877Z,8.13
2023-02-05T18:37:50.874Z,8.85
2023-02-05T18:42:53.848Z,8.13
2023-02-05T18:47:56.149Z,7.47
2023-02-05T18:52:58.246Z,10.95
2023-02-05T18:58:00.291Z,7.55
2023-02-05T19:03:02.425Z,7.70
2023-02-05T19:08:06.542Z,7.53
2023-02-05T19:13:09.438Z,6.47
2023-02-05T19:18:12.043Z,9.38
2023-02-05T19:23:15.160Z,8.57
2023-02-05T19:28:17.293Z,6.78
2023-02-05T19:33:19.439Z,8.40
2023-02-05T19:38:21.609Z,7.10
2023-02-05T19:43:23.728Z,13.20
2023-02-05T19:48:25.775Z,6.90
2023-02-05T19:53:27.938Z,7.57
2023-02-05T19:58:30.477Z,7.05
2023-02-05T20:03:32.643Z,7.25
2023-02-05T20:08:34.628Z,5.65
2023-02-05T20:13:38.576Z,6.97
2023-02-05T20:18:41.976Z,4.88
2023-02-05T20:23:44.215Z,6.32
2023-02-05T20:29:06.760Z,3.83
2023-02-05T20:34:12.889Z,4.45
2023-02-05T20:39:17.344Z,4.28
2023-02-05T20:44:19.786Z,5.15
2023-02-05T20:49:21.866Z,6.10
2023-02-05T20:54:23.894Z,3.85
2023-02-05T20:59:27.864Z,7.70
2023-02-05T21:04:30.275Z,6.82
2023-02-05T21:09:32.448Z,8.35
2023-02-05T21:14:34.498Z,7.60
2023-02-05T21:19:36.784Z,6.68
2023-02-05T21:24:39.026Z,5.70
2023-02-05T21:29:41.066Z,7.57
2023-02-05T21:34:43.478Z,9.90
2023-02-05T21:39:45.604Z,7.18
2023-02-05T21:44:51.082Z,5.43
2023-02-05T21:49:53.105Z,9.23
2023-02-05T21:54:55.197Z,6.25
2023-02-05T21:59:57.348Z,4.85
2023-02-05T22:04:59.672Z,7.90
2023-02-05T22:10:01.833Z,6.32
2023-02-05T22:15:04.033Z,11.00
2023-02-05T22:20:07.062Z,8.13
2023-02-05T22:25:09.552Z,8.25
2023-02-05T22:30:12.337Z,7.28
2023-02-05T22:35:14.861Z,8.85
2023-02-05T22:40:16.924Z,7.78
2023-02-05T22:45:18.915Z,10.48
2023-02-05T22:50:22.536Z,7.35
2023-02-05T22:55:25.434Z,18.13
2023-02-05T23:00:28.009Z,6.45
2023-02-05T23:05:32.451Z,13.82
2023-02-05T23:10:34.543Z,17.25
2023-02-05T23:15:36.963Z,13.85
2023-02-05T23:20:41.510Z,8.20
2023-02-05T23:25:44.270Z,9.85
2023-02-05T23:30:46.656Z,7.40
2023-02-05T23:35:48.770Z,7.47
2023-02-05T23:40:51.938Z,9.57
2023-02-05T23:45:54.808Z,7.53
2023-02-05T23:50:57.258Z,6.22
2023-02-05T23:55:59.735Z,4.65
